Hovedside
METAR-TAF:

METAR-TAF

Lufthavner :

Örebro, Sverige

breddegrad: 59-14N, lengdegrad: 015-03E, høyde over havet: 57 m

Gjeldene værobservasjon

Denne rapporten ble laget for 26 minutter siden, klokken 18:20 UTC
Vind 3 kt fra Nord-nordøst, skiftende mellom Nord og Øst-nordøst
Temperatur 1°C
Luftfuktighet 93%
Trykk 1038 hPa
Sikt 10 km eller mer
Overskyet i en høyde av 2500 ft

METAR: ESOE 191820Z 02003KT 360V070 9999 OVC025 01/M00 Q1038

Tid: 19:46 (18:46 UTC)

Varsel

Denne rapporten ble laget for 1 time og 16 minutter siden, klokken 17:30 UTC
Varsel gyldig fra 19. klokken 18 UTC til 19. klokken 24 UTC
Vind 4 kt fra Nord-nordøst
Sikt 10 km eller mer
Brutte skyer i en høyde av 2500 ft

TAF: ESOE 191730Z 1918/1924 02004KT 9999 BKN025

Værobservasjoner og værvarsel for over 4000 flyplasser (METAR- og TAF-rapporter).

Tilgjengelige stasjoner er representert av de røde og gule prikkene på kartet.

Hold musepekeren over prikken for å se navnet på stasjonen.

Klikk så for å se værobservasjoner og -varsler.

For å forandre kartet kan du klikke på den grønne knappen med svart kryss for å zoome inn, på den grønne knappen med strek for å zoome ut, eller på de grønne pilene for å se tilstøtende kart.


METAR-TAF: